sensor_id;sensor_type;location;lat;lon;timestamp;pressure;altitude;pressure_sealevel;temperature;humidity
21980;BME280;11154;48.558;9.234;2022-12-07T00:01:19;97555.28;;;10.06;75.71
21980;BME280;11154;48.558;9.234;2022-12-07T00:03:22;97545.34;;;10.08;75.25
21980;BME280;11154;48.558;9.234;2022-12-07T00:05:24;97559.31;;;10.10;75.08
21980;BME280;11154;48.558;9.234;2022-12-07T00:07:26;97554.66;;;10.12;74.93
21980;BME280;11154;48.558;9.234;2022-12-07T00:09:27;97555.34;;;10.14;74.46
21980;BME280;11154;48.558;9.234;2022-12-07T00:11:31;97551.69;;;10.15;74.26
21980;BME280;11154;48.558;9.234;2022-12-07T00:13:34;97551.69;;;10.15;74.67
21980;BME280;11154;48.558;9.234;2022-12-07T00:15:36;97548.06;;;10.16;74.67
21980;BME280;11154;48.558;9.234;2022-12-07T00:17:38;97557.81;;;10.15;74.67
21980;BME280;11154;48.558;9.234;2022-12-07T00:19:42;97553.38;;;10.16;75.13
21980;BME280;11154;48.558;9.234;2022-12-07T00:21:46;97555.97;;;10.08;75.49
21980;BME280;11154;48.558;9.234;2022-12-07T00:23:49;97555.97;;;10.08;76.19
21980;BME280;11154;48.558;9.234;2022-12-07T00:25:50;97555.13;;;10.07;76.59
21980;BME280;11154;48.558;9.234;2022-12-07T00:27:54;97552.78;;;10.05;76.33
21980;BME280;11154;48.558;9.234;2022-12-07T00:29:56;97551.97;;;10.04;76.56
21980;BME280;11154;48.558;9.234;2022-12-07T00:31:58;97551.88;;;9.96;76.34
21980;BME280;11154;48.558;9.234;2022-12-07T00:34:00;97543.22;;;9.94;76.83
21980;BME280;11154;48.558;9.234;2022-12-07T00:36:03;97544.69;;;9.89;76.72
21980;BME280;11154;48.558;9.234;2022-12-07T00:38:06;97548.50;;;9.86;76.96
21980;BME280;11154;48.558;9.234;2022-12-07T00:40:09;97548.34;;;9.88;76.70
21980;BME280;11154;48.558;9.234;2022-12-07T00:42:10;97548.03;;;9.91;76.45
21980;BME280;11154;48.558;9.234;2022-12-07T00:44:13;97548.88;;;9.91;77.16
21980;BME280;11154;48.558;9.234;2022-12-07T00:46:15;97549.69;;;9.92;76.40
21980;BME280;11154;48.558;9.234;2022-12-07T00:48:17;97553.34;;;9.91;76.86
21980;BME280;11154;48.558;9.234;2022-12-07T00:50:19;97546.06;;;9.93;76.11
21980;BME280;11154;48.558;9.234;2022-12-07T00:52:20;97546.06;;;9.93;76.53
21980;BME280;11154;48.558;9.234;2022-12-07T00:54:22;97542.25;;;9.95;76.56
21980;BME280;11154;48.558;9.234;2022-12-07T00:56:26;97539.59;;;9.95;76.80
21980;BME280;11154;48.558;9.234;2022-12-07T00:58:29;97541.44;;;9.95;76.85
21980;BME280;11154;48.558;9.234;2022-12-07T01:00:32;97535.94;;;9.96;76.44
21980;BME280;11154;48.558;9.234;2022-12-07T01:02:34;97542.97;;;9.97;76.54
21980;BME280;11154;48.558;9.234;2022-12-07T01:04:36;97537.75;;;9.96;76.87
21980;BME280;11154;48.558;9.234;2022-12-07T01:06:38;97536.13;;;9.95;76.12
21980;BME280;11154;48.558;9.234;2022-12-07T01:08:40;97546.56;;;9.96;76.71
21980;BME280;11154;48.558;9.234;2022-12-07T01:10:41;97541.25;;;9.96;76.98
21980;BME280;11154;48.558;9.234;2022-12-07T01:12:43;97543.06;;;9.96;76.61
21980;BME280;11154;48.558;9.234;2022-12-07T01:14:46;97544.09;;;9.95;77.09
21980;BME280;11154;48.558;9.234;2022-12-07T01:16:49;97542.25;;;9.95;76.64
21980;BME280;11154;48.558;9.234;2022-12-07T01:18:52;97535.59;;;9.91;76.33
21980;BME280;11154;48.558;9.234;2022-12-07T01:20:58;97544.84;;;9.87;75.31
21980;BME280;11154;48.558;9.234;2022-12-07T01:23:00;97542.53;;;9.84;75.11
21980;BME280;11154;48.558;9.234;2022-12-07T01:25:02;97552.00;;;9.87;74.92
21980;BME280;11154;48.558;9.234;2022-12-07T01:27:03;97546.16;;;9.83;74.36
21980;BME280;11154;48.558;9.234;2022-12-07T01:29:05;97553.78;;;9.86;74.70
21980;BME280;11154;48.558;9.234;2022-12-07T01:31:08;97544.84;;;9.87;73.79
21980;BME280;11154;48.558;9.234;2022-12-07T01:33:13;97558.81;;;9.89;74.35
21980;BME280;11154;48.558;9.234;2022-12-07T01:35:14;97555.31;;;9.89;74.40
21980;BME280;11154;48.558;9.234;2022-12-07T01:37:16;97556.84;;;9.91;74.32
21980;BME280;11154;48.558;9.234;2022-12-07T01:39:18;97559.00;;;9.96;75.88
21980;BME280;11154;48.558;9.234;2022-12-07T01:41:21;97556.50;;;9.94;76.89
21980;BME280;11154;48.558;9.234;2022-12-07T01:43:23;97563.28;;;9.89;76.09
21980;BME280;11154;48.558;9.234;2022-12-07T01:45:44;97555.13;;;9.82;75.43
21980;BME280;11154;48.558;9.234;2022-12-07T01:47:50;97555.41;;;9.79;74.96
21980;BME280;11154;48.558;9.234;2022-12-07T01:49:55;97561.03;;;9.76;74.69
21980;BME280;11154;48.558;9.234;2022-12-07T01:52:05;97562.72;;;9.77;74.99
21980;BME280;11154;48.558;9.234;2022-12-07T01:54:11;97558.56;;;9.75;74.00
21980;BME280;11154;48.558;9.234;2022-12-07T01:56:17;97549.09;;;9.72;74.89
21980;BME280;11154;48.558;9.234;2022-12-07T01:58:23;97550.06;;;9.71;74.88
21980;BME280;11154;48.558;9.234;2022-12-07T02:00:25;97516.47;;;9.20;75.23
21980;BME280;11154;48.558;9.234;2022-12-07T02:02:29;97520.16;;;7.58;85.24
21980;BME280;11154;48.558;9.234;2022-12-07T02:04:32;97522.31;;;7.07;90.15
21980;BME280;11154;48.558;9.234;2022-12-07T02:06:37;97540.41;;;6.83;92.89
21980;BME280;11154;48.558;9.234;2022-12-07T02:08:39;97536.22;;;6.71;94.69
21980;BME280;11154;48.558;9.234;2022-12-07T02:10:40;97530.66;;;6.65;96.02
21980;BME280;11154;48.558;9.234;2022-12-07T02:12:44;97529.13;;;6.62;97.11
21980;BME280;11154;48.558;9.234;2022-12-07T02:14:48;97537.75;;;6.64;98.26
21980;BME280;11154;48.558;9.234;2022-12-07T02:17:01;97529.25;;;6.61;99.68
21980;BME280;11154;48.558;9.234;2022-12-07T02:19:33;97532.63;;;6.63;100.00
21980;BME280;11154;48.558;9.234;2022-12-07T02:21:45;97533.16;;;6.66;100.00
21980;BME280;11154;48.558;9.234;2022-12-07T02:24:13;97538.47;;;6.66;100.00
21980;BME280;11154;48.558;9.234;2022-12-07T02:26:28;97535.94;;;6.65;100.00
21980;BME280;11154;48.558;9.234;2022-12-07T02:28:51;97536.06;;;6.63;100.00
21980;BME280;11154;48.558;9.234;2022-12-07T02:31:02;97530.53;;;6.57;100.00
21980;BME280;11154;48.558;9.234;2022-12-07T02:33:11;97537.88;;;6.53;100.00
21980;BME280;11154;48.558;9.234;2022-12-07T02:35:18;97527.31;;;6.53;100.00
21980;BME280;11154;48.558;9.234;2022-12-07T02:37:32;97540.22;;;6.56;100.00
21980;BME280;11154;48.558;9.234;2022-12-07T02:39:42;97530.38;;;6.58;100.00
21980;BME280;11154;48.558;9.234;2022-12-07T02:41:47;97533.97;;;6.57;100.00
21980;BME280;11154;48.558;9.234;2022-12-07T02:43:54;97529.09;;;6.53;100.00
21980;BME280;11154;48.558;9.234;2022-12-07T02:46:01;97533.16;;;6.57;100.00
21980;BME280;11154;48.558;9.234;2022-12-07T02:48:05;97540.38;;;6.55;100.00
21980;BME280;11154;48.558;9.234;2022-12-07T02:50:08;97533.00;;;6.58;100.00
21980;BME280;11154;48.558;9.234;2022-12-07T02:52:10;97530.78;;;6.54;100.00
21980;BME280;11154;48.558;9.234;2022-12-07T02:54:13;97538.69;;;6.54;100.00
21980;BME280;11154;48.558;9.234;2022-12-07T02:56:22;97527.56;;;6.50;100.00
21980;BME280;11154;48.558;9.234;2022-12-07T02:58:35;97522.44;;;6.49;100.00
21980;BME280;11154;48.558;9.234;2022-12-07T03:00:46;97517.69;;;6.43;100.00
21980;BME280;11154;48.558;9.234;2022-12-07T03:02:57;97523.94;;;6.42;100.00
21980;BME280;11154;48.558;9.234;2022-12-07T03:05:12;97523.13;;;6.42;100.00
21980;BME280;11154;48.558;9.234;2022-12-07T03:07:20;97520.91;;;6.46;100.00
21980;BME280;11154;48.558;9.234;2022-12-07T03:09:31;97525.22;;;6.47;99.98
21980;BME280;11154;48.558;9.234;2022-12-07T03:11:42;97525.91;;;6.49;100.00
21980;BME280;11154;48.558;9.234;2022-12-07T03:13:49;97519.66;;;6.50;100.00
21980;BME280;11154;48.558;9.234;2022-12-07T03:15:58;97516.44;;;6.47;100.00
21980;BME280;11154;48.558;9.234;2022-12-07T03:18:04;97514.66;;;6.47;99.74
21980;BME280;11154;48.558;9.234;2022-12-07T03:20:10;97503.53;;;6.44;99.11
21980;BME280;11154;48.558;9.234;2022-12-07T03:22:13;97508.38;;;6.48;99.02
21980;BME280;11154;48.558;9.234;2022-12-07T03:24:19;97506.16;;;6.44;99.57
21980;BME280;11154;48.558;9.234;2022-12-07T03:26:24;97510.06;;;6.49;99.84
21980;BME280;11154;48.558;9.234;2022-12-07T03:28:33;97512.28;;;6.44;99.98
21980;BME280;11154;48.558;9.234;2022-12-07T03:30:39;97522.00;;;6.44;99.61
21980;BME280;11154;48.558;9.234;2022-12-07T03:32:48;97513.66;;;6.39;98.77
21980;BME280;11154;48.558;9.234;2022-12-07T03:34:57;97511.16;;;6.38;97.53
21980;BME280;11154;48.558;9.234;2022-12-07T03:37:03;97506.72;;;6.38;97.17
21980;BME280;11154;48.558;9.234;2022-12-07T03:39:13;97507.81;;;6.36;97.73
21980;BME280;11154;48.558;9.234;2022-12-07T03:41:22;97506.16;;;6.35;98.08
21980;BME280;11154;48.558;9.234;2022-12-07T03:43:25;97498.91;;;6.37;98.44
21980;BME280;11154;48.558;9.234;2022-12-07T03:45:32;97497.69;;;6.41;98.73
21980;BME280;11154;48.558;9.234;2022-12-07T03:47:42;97495.72;;;6.43;99.04
21980;BME280;11154;48.558;9.234;2022-12-07T03:49:50;97503.09;;;6.39;99.13
21980;BME280;11154;48.558;9.234;2022-12-07T03:51:56;97510.03;;;6.40;98.58
21980;BME280;11154;48.558;9.234;2022-12-07T03:54:07;97505.59;;;6.41;98.90
21980;BME280;11154;48.558;9.234;2022-12-07T03:56:11;97508.50;;;6.38;98.07
21980;BME280;11154;48.558;9.234;2022-12-07T03:58:16;97506.56;;;6.40;98.22
21980;BME280;11154;48.558;9.234;2022-12-07T04:00:19;97541.91;;;6.57;97.13
21980;BME280;11154;48.558;9.234;2022-12-07T04:02:22;97535.22;;;7.57;92.99
21980;BME280;11154;48.558;9.234;2022-12-07T04:04:24;97535.75;;;8.06;88.77
21980;BME280;11154;48.558;9.234;2022-12-07T04:06:27;97541.34;;;8.40;85.19
21980;BME280;11154;48.558;9.234;2022-12-07T04:08:29;97545.94;;;8.64;82.25
21980;BME280;11154;48.558;9.234;2022-12-07T04:10:31;97538.66;;;8.84;80.24
21980;BME280;11154;48.558;9.234;2022-12-07T04:12:32;97534.34;;;9.00;79.18
21980;BME280;11154;48.558;9.234;2022-12-07T04:14:34;97526.03;;;9.13;78.90
21980;BME280;11154;48.558;9.234;2022-12-07T04:16:36;97534.72;;;9.23;78.56
21980;BME280;11154;48.558;9.234;2022-12-07T04:18:38;97530.34;;;9.31;79.48
21980;BME280;11154;48.558;9.234;2022-12-07T04:20:39;97527.59;;;9.40;78.57
21980;BME280;11154;48.558;9.234;2022-12-07T04:22:42;97520.00;;;9.45;78.08
21980;BME280;11154;48.558;9.234;2022-12-07T04:24:44;97519.69;;;9.48;77.76
21980;BME280;11154;48.558;9.234;2022-12-07T04:26:46;97516.66;;;9.43;77.34
21980;BME280;11154;48.558;9.234;2022-12-07T04:28:48;97520.31;;;9.42;77.27
21980;BME280;11154;48.558;9.234;2022-12-07T04:30:49;97519.47;;;9.42;77.87
21980;BME280;11154;48.558;9.234;2022-12-07T04:32:51;97515.00;;;9.42;77.70
21980;BME280;11154;48.558;9.234;2022-12-07T04:34:53;97519.66;;;9.40;77.96
21980;BME280;11154;48.558;9.234;2022-12-07T04:36:54;97525.09;;;9.39;78.08
21980;BME280;11154;48.558;9.234;2022-12-07T04:38:57;97514.47;;;9.39;78.25
21980;BME280;11154;48.558;9.234;2022-12-07T04:41:04;97520.47;;;9.41;78.45
21980;BME280;11154;48.558;9.234;2022-12-07T04:43:06;97517.00;;;9.40;78.50
21980;BME280;11154;48.558;9.234;2022-12-07T04:45:09;97522.97;;;9.42;78.21
21980;BME280;11154;48.558;9.234;2022-12-07T04:47:10;97520.63;;;9.39;77.80
21980;BME280;11154;48.558;9.234;2022-12-07T04:49:13;97520.75;;;9.38;77.64
21980;BME280;11154;48.558;9.234;2022-12-07T04:51:19;97527.38;;;9.34;77.13
21980;BME280;11154;48.558;9.234;2022-12-07T04:53:21;97522.00;;;9.26;75.48
21980;BME280;11154;48.558;9.234;2022-12-07T04:55:25;97517.00;;;9.23;75.28
21980;BME280;11154;48.558;9.234;2022-12-07T04:57:26;97513.50;;;9.23;74.59
21980;BME280;11154;48.558;9.234;2022-12-07T04:59:28;97514.34;;;9.23;74.43
21980;BME280;11154;48.558;9.234;2022-12-07T05:01:30;97516.31;;;9.21;73.90
21980;BME280;11154;48.558;9.234;2022-12-07T05:03:32;97520.13;;;9.19;73.76
21980;BME280;11154;48.558;9.234;2022-12-07T05:05:33;97521.94;;;9.18;73.76
21980;BME280;11154;48.558;9.234;2022-12-07T05:07:35;97511.34;;;9.18;73.62
21980;BME280;11154;48.558;9.234;2022-12-07T05:09:36;97516.25;;;9.13;73.16
21980;BME280;11154;48.558;9.234;2022-12-07T05:11:39;97513.59;;;9.13;73.54
21980;BME280;11154;48.558;9.234;2022-12-07T05:13:41;97514.66;;;9.20;74.32
21980;BME280;11154;48.558;9.234;2022-12-07T05:15:43;97511.00;;;9.21;77.00
21980;BME280;11154;48.558;9.234;2022-12-07T05:17:44;97509.13;;;9.14;74.47
21980;BME280;11154;48.558;9.234;2022-12-07T05:19:46;97510.72;;;9.07;73.08
21980;BME280;11154;48.558;9.234;2022-12-07T05:21:48;97510.66;;;8.99;72.16
21980;BME280;11154;48.558;9.234;2022-12-07T05:23:50;97518.41;;;8.92;72.20
21980;BME280;11154;48.558;9.234;2022-12-07T05:25:51;97515.06;;;8.90;73.16
21980;BME280;11154;48.558;9.234;2022-12-07T05:27:56;97520.50;;;8.89;72.81
21980;BME280;11154;48.558;9.234;2022-12-07T05:29:57;97513.81;;;8.85;72.60
21980;BME280;11154;48.558;9.234;2022-12-07T05:31:59;97516.91;;;8.80;72.15
21980;BME280;11154;48.558;9.234;2022-12-07T05:34:01;97510.81;;;8.80;72.36
21980;BME280;11154;48.558;9.234;2022-12-07T05:36:03;97512.91;;;8.76;72.34
21980;BME280;11154;48.558;9.234;2022-12-07T05:38:07;97513.34;;;8.72;72.27
21980;BME280;11154;48.558;9.234;2022-12-07T05:40:10;97506.53;;;8.69;72.57
21980;BME280;11154;48.558;9.234;2022-12-07T05:42:12;97508.22;;;8.70;73.29
21980;BME280;11154;48.558;9.234;2022-12-07T05:44:14;97502.09;;;8.70;72.68
21980;BME280;11154;48.558;9.234;2022-12-07T05:46:15;97505.13;;;8.75;72.84
21980;BME280;11154;48.558;9.234;2022-12-07T05:48:17;97505.28;;;8.73;72.17
21980;BME280;11154;48.558;9.234;2022-12-07T05:50:18;97508.06;;;8.72;71.41
21980;BME280;11154;48.558;9.234;2022-12-07T05:52:20;97500.81;;;8.74;71.54
21980;BME280;11154;48.558;9.234;2022-12-07T05:54:22;97504.16;;;8.76;71.67
21980;BME280;11154;48.558;9.234;2022-12-07T05:56:24;97509.97;;;8.79;71.80
21980;BME280;11154;48.558;9.234;2022-12-07T05:58:26;97508.00;;;8.81;72.34
21980;BME280;11154;48.558;9.234;2022-12-07T06:00:47;97498.25;;;8.82;72.23
21980;BME280;11154;48.558;9.234;2022-12-07T06:02:48;97506.31;;;8.80;71.72
21980;BME280;11154;48.558;9.234;2022-12-07T06:04:50;97503.38;;;8.66;72.52
21980;BME280;11154;48.558;9.234;2022-12-07T06:06:52;97495.84;;;8.61;73.20
21980;BME280;11154;48.558;9.234;2022-12-07T06:08:53;97506.16;;;8.64;73.28
21980;BME280;11154;48.558;9.234;2022-12-07T06:10:55;97507.16;;;8.63;73.14
21980;BME280;11154;48.558;9.234;2022-12-07T06:13:10;97500.06;;;8.64;72.43
21980;BME280;11154;48.558;9.234;2022-12-07T06:15:12;97496.16;;;8.59;70.93
21980;BME280;11154;48.558;9.234;2022-12-07T06:17:15;97497.31;;;8.56;71.28
21980;BME280;11154;48.558;9.234;2022-12-07T06:19:17;97492.59;;;8.50;71.86
21980;BME280;11154;48.558;9.234;2022-12-07T06:21:19;97499.56;;;8.51;71.63
21980;BME280;11154;48.558;9.234;2022-12-07T06:23:20;97509.03;;;8.54;70.98
21980;BME280;11154;48.558;9.234;2022-12-07T06:25:22;97519.88;;;8.60;70.78
21980;BME280;11154;48.558;9.234;2022-12-07T06:27:24;97511.75;;;8.61;70.84
21980;BME280;11154;48.558;9.234;2022-12-07T06:29:25;97509.78;;;8.63;70.74
21980;BME280;11154;48.558;9.234;2022-12-07T06:31:27;97514.13;;;8.64;70.28
21980;BME280;11154;48.558;9.234;2022-12-07T06:33:30;97517.31;;;8.68;70.30
21980;BME280;11154;48.558;9.234;2022-12-07T06:35:32;97525.09;;;8.69;69.46
21980;BME280;11154;48.558;9.234;2022-12-07T06:37:34;97532.66;;;8.64;69.92
21980;BME280;11154;48.558;9.234;2022-12-07T06:39:35;97524.88;;;8.63;70.05
21980;BME280;11154;48.558;9.234;2022-12-07T06:41:37;97526.84;;;8.61;69.41
21980;BME280;11154;48.558;9.234;2022-12-07T06:43:39;97530.47;;;8.60;69.99
21980;BME280;11154;48.558;9.234;2022-12-07T06:45:42;97529.66;;;8.60;71.07
21980;BME280;11154;48.558;9.234;2022-12-07T06:47:44;97523.50;;;8.59;72.35
21980;BME280;11154;48.558;9.234;2022-12-07T06:49:47;97522.66;;;8.59;72.64
21980;BME280;11154;48.558;9.234;2022-12-07T06:51:48;97528.66;;;8.61;72.85
21980;BME280;11154;48.558;9.234;2022-12-07T06:53:50;97533.81;;;8.62;72.71
21980;BME280;11154;48.558;9.234;2022-12-07T06:55:52;97533.81;;;8.62;72.55
21980;BME280;11154;48.558;9.234;2022-12-07T06:57:53;97528.19;;;8.65;72.69
21980;BME280;11154;48.558;9.234;2022-12-07T06:59:55;97528.72;;;8.68;72.95
21980;BME280;11154;48.558;9.234;2022-12-07T07:01:56;97522.22;;;8.80;72.95
21980;BME280;11154;48.558;9.234;2022-12-07T07:03:58;97531.69;;;9.00;72.65
21980;BME280;11154;48.558;9.234;2022-12-07T07:06:01;97530.50;;;9.12;71.42
21980;BME280;11154;48.558;9.234;2022-12-07T07:08:03;97528.44;;;9.06;71.01
21980;BME280;11154;48.558;9.234;2022-12-07T07:10:06;97537.16;;;8.99;71.48
21980;BME280;11154;48.558;9.234;2022-12-07T07:12:08;97544.84;;;9.02;71.79
21980;BME280;11154;48.558;9.234;2022-12-07T07:14:09;97548.81;;;8.88;71.26
21980;BME280;11154;48.558;9.234;2022-12-07T07:16:12;97548.22;;;8.77;71.59
21980;BME280;11154;48.558;9.234;2022-12-07T07:18:14;97546.31;;;8.69;71.77
21980;BME280;11154;48.558;9.234;2022-12-07T07:20:16;97549.34;;;8.74;71.89
21980;BME280;11154;48.558;9.234;2022-12-07T07:22:19;97549.22;;;8.76;71.62
21980;BME280;11154;48.558;9.234;2022-12-07T07:24:21;97545.56;;;8.77;71.51
21980;BME280;11154;48.558;9.234;2022-12-07T07:26:22;97545.56;;;8.77;70.81
21980;BME280;11154;48.558;9.234;2022-12-07T07:28:24;97545.97;;;8.82;70.59
21980;BME280;11154;48.558;9.234;2022-12-07T07:30:26;97543.06;;;8.93;73.31
21980;BME280;11154;48.558;9.234;2022-12-07T07:32:27;97539.53;;;9.02;76.36
21980;BME280;11154;48.558;9.234;2022-12-07T07:34:29;97538.22;;;9.06;76.85
21980;BME280;11154;48.558;9.234;2022-12-07T07:36:32;97549.28;;;9.01;73.84
21980;BME280;11154;48.558;9.234;2022-12-07T07:38:35;97533.81;;;8.97;72.46
21980;BME280;11154;48.558;9.234;2022-12-07T07:40:36;97524.34;;;8.94;72.29
21980;BME280;11154;48.558;9.234;2022-12-07T07:42:38;97530.78;;;8.92;72.57
21980;BME280;11154;48.558;9.234;2022-12-07T07:44:40;97540.75;;;8.90;72.33
21980;BME280;11154;48.558;9.234;2022-12-07T07:46:41;97548.81;;;8.88;72.46
21980;BME280;11154;48.558;9.234;2022-12-07T07:48:43;97549.69;;;8.89;73.23
21980;BME280;11154;48.558;9.234;2022-12-07T07:50:44;97547.78;;;8.99;73.16
21980;BME280;11154;48.558;9.234;2022-12-07T07:52:46;97545.75;;;9.10;72.53
21980;BME280;11154;48.558;9.234;2022-12-07T07:54:49;97556.88;;;9.14;71.83
21980;BME280;11154;48.558;9.234;2022-12-07T07:56:52;97559.38;;;9.15;71.80
21980;BME280;11154;48.558;9.234;2022-12-07T07:58:53;97567.88;;;9.19;72.09
21980;BME280;11154;48.558;9.234;2022-12-07T08:00:55;97573.88;;;9.21;71.86
21980;BME280;11154;48.558;9.234;2022-12-07T08:02:57;97568.22;;;9.24;72.11
21980;BME280;11154;48.558;9.234;2022-12-07T08:04:59;97569.91;;;9.25;72.82
21980;BME280;11154;48.558;9.234;2022-12-07T08:07:01;97577.25;;;9.31;72.80
21980;BME280;11154;48.558;9.234;2022-12-07T08:09:02;97570.44;;;9.28;71.82
21980;BME280;11154;48.558;9.234;2022-12-07T08:11:08;97574.53;;;9.23;72.53
21980;BME280;11154;48.558;9.234;2022-12-07T08:13:10;97580.00;;;9.21;73.00
21980;BME280;11154;48.558;9.234;2022-12-07T08:15:12;97575.66;;;9.20;73.70
21980;BME280;11154;48.558;9.234;2022-12-07T08:17:14;97581.13;;;9.19;72.64
21980;BME280;11154;48.558;9.234;2022-12-07T08:19:15;97588.25;;;9.18;72.20
21980;BME280;11154;48.558;9.234;2022-12-07T08:21:17;97581.41;;;9.16;72.85
21980;BME280;11154;48.558;9.234;2022-12-07T08:23:18;97574.47;;;9.15;73.03
21980;BME280;11154;48.558;9.234;2022-12-07T08:25:20;97581.41;;;9.16;73.21
21980;BME280;11154;48.558;9.234;2022-12-07T08:27:23;97586.44;;;9.19;73.63
21980;BME280;11154;48.558;9.234;2022-12-07T08:29:27;97588.47;;;9.25;74.14
21980;BME280;11154;48.558;9.234;2022-12-07T08:31:29;97586.72;;;9.33;73.60
21980;BME280;11154;48.558;9.234;2022-12-07T08:33:31;97587.09;;;9.38;73.28
21980;BME280;11154;48.558;9.234;2022-12-07T08:35:32;97598.25;;;9.41;73.00
21980;BME280;11154;48.558;9.234;2022-12-07T08:37:34;97595.13;;;9.46;72.85
21980;BME280;11154;48.558;9.234;2022-12-07T08:39:36;97589.22;;;9.52;73.04
21980;BME280;11154;48.558;9.234;2022-12-07T08:41:37;97586.44;;;9.53;73.33
21980;BME280;11154;48.558;9.234;2022-12-07T08:43:40;97582.75;;;9.54;72.72
21980;BME280;11154;48.558;9.234;2022-12-07T08:45:42;97588.59;;;9.58;73.20
21980;BME280;11154;48.558;9.234;2022-12-07T08:47:47;97589.44;;;9.58;72.21
21980;BME280;11154;48.558;9.234;2022-12-07T08:49:51;97582.75;;;9.54;72.89
21980;BME280;11154;48.558;9.234;2022-12-07T08:51:54;97588.75;;;9.56;73.45
21980;BME280;11154;48.558;9.234;2022-12-07T08:53:58;97583.09;;;9.51;73.12
21980;BME280;11154;48.558;9.234;2022-12-07T08:56:02;97588.69;;;9.48;72.94
21980;BME280;11154;48.558;9.234;2022-12-07T08:58:05;97585.91;;;9.50;73.34
21980;BME280;11154;48.558;9.234;2022-12-07T09:00:09;97588.84;;;9.47;73.42
21980;BME280;11154;48.558;9.234;2022-12-07T09:02:11;97594.00;;;9.48;73.79
21980;BME280;11154;48.558;9.234;2022-12-07T09:04:12;97592.31;;;9.47;74.20
21980;BME280;11154;48.558;9.234;2022-12-07T09:06:15;97593.19;;;9.48;74.22
21980;BME280;11154;48.558;9.234;2022-12-07T09:08:18;97594.53;;;9.52;74.80
21980;BME280;11154;48.558;9.234;2022-12-07T09:10:19;97592.41;;;9.55;74.40
21980;BME280;11154;48.558;9.234;2022-12-07T09:12:21;97591.41;;;9.56;74.26
21980;BME280;11154;48.558;9.234;2022-12-07T09:14:23;97591.06;;;9.51;73.97
21980;BME280;11154;48.558;9.234;2022-12-07T09:16:26;97586.19;;;9.47;74.46
21980;BME280;11154;48.558;9.234;2022-12-07T09:18:28;97591.28;;;9.40;75.05
21980;BME280;11154;48.558;9.234;2022-12-07T09:20:30;97585.75;;;9.34;75.42
21980;BME280;11154;48.558;9.234;2022-12-07T09:22:32;97592.19;;;9.32;75.10
21980;BME280;11154;48.558;9.234;2022-12-07T09:24:34;97587.19;;;9.29;74.81
21980;BME280;11154;48.558;9.234;2022-12-07T09:26:36;97586.88;;;9.32;75.06
21980;BME280;11154;48.558;9.234;2022-12-07T09:28:39;97589.69;;;9.30;75.44
21980;BME280;11154;48.558;9.234;2022-12-07T09:30:45;97599.00;;;9.34;75.09
21980;BME280;11154;48.558;9.234;2022-12-07T09:32:48;97591.44;;;9.39;75.55
21980;BME280;11154;48.558;9.234;2022-12-07T09:34:50;97585.38;;;9.46;75.55
21980;BME280;11154;48.558;9.234;2022-12-07T09:36:51;97593.00;;;9.49;74.82
21980;BME280;11154;48.558;9.234;2022-12-07T09:38:53;97588.06;;;9.54;74.45
21980;BME280;11154;48.558;9.234;2022-12-07T09:40:55;97586.81;;;9.58;75.16
21980;BME280;11154;48.558;9.234;2022-12-07T09:42:57;97574.06;;;9.62;74.57
21980;BME280;11154;48.558;9.234;2022-12-07T09:44:59;97578.66;;;9.77;74.74
21980;BME280;11154;48.558;9.234;2022-12-07T09:47:01;97568.69;;;9.79;73.69
21980;BME280;11154;48.558;9.234;2022-12-07T09:49:05;97575.00;;;9.78;74.16
21980;BME280;11154;48.558;9.234;2022-12-07T09:51:14;97567.69;;;9.80;73.73
21980;BME280;11154;48.558;9.234;2022-12-07T09:53:23;97561.25;;;9.83;73.54
21980;BME280;11154;48.558;9.234;2022-12-07T09:55:28;97567.06;;;9.86;73.75
21980;BME280;11154;48.558;9.234;2022-12-07T09:57:31;97560.13;;;9.85;72.64
21980;BME280;11154;48.558;9.234;2022-12-07T09:59:34;97560.13;;;9.85;74.04
21980;BME280;11154;48.558;9.234;2022-12-07T10:01:38;97555.41;;;9.79;72.34
21980;BME280;11154;48.558;9.234;2022-12-07T10:03:42;97545.94;;;9.77;71.66
21980;BME280;11154;48.558;9.234;2022-12-07T10:05:49;97550.72;;;9.73;70.02
21980;BME280;11154;48.558;9.234;2022-12-07T10:07:52;97553.38;;;9.73;70.82
21980;BME280;11154;48.558;9.234;2022-12-07T10:09:56;97550.25;;;9.78;70.29
21980;BME280;11154;48.558;9.234;2022-12-07T10:12:03;97551.78;;;9.80;70.48
21980;BME280;11154;48.558;9.234;2022-12-07T10:14:11;97544.50;;;9.82;69.78
21980;BME280;11154;48.558;9.234;2022-12-07T10:16:40;97539.69;;;9.86;69.89
21980;BME280;11154;48.558;9.234;2022-12-07T10:18:43;97542.19;;;9.87;70.24
21980;BME280;11154;48.558;9.234;2022-12-07T10:20:45;97544.91;;;9.95;70.52
21980;BME280;11154;48.558;9.234;2022-12-07T10:23:14;97541.66;;;10.01;71.32
21980;BME280;11154;48.558;9.234;2022-12-07T10:25:18;97529.19;;;10.02;69.90
21980;BME280;11154;48.558;9.234;2022-12-07T10:27:22;97535.03;;;10.05;70.35
21980;BME280;11154;48.558;9.234;2022-12-07T10:29:29;97527.75;;;10.07;68.04
21980;BME280;11154;48.558;9.234;2022-12-07T10:31:31;97533.41;;;10.12;67.90
21980;BME280;11154;48.558;9.234;2022-12-07T10:33:35;97533.41;;;10.12;66.66
21980;BME280;11154;48.558;9.234;2022-12-07T10:35:42;97529.47;;;10.16;66.02
21980;BME280;11154;48.558;9.234;2022-12-07T10:37:44;97526.59;;;10.09;64.58
21980;BME280;11154;48.558;9.234;2022-12-07T10:39:49;97523.75;;;10.11;65.28
21980;BME280;11154;48.558;9.234;2022-12-07T10:41:55;97512.00;;;10.13;64.78
21980;BME280;11154;48.558;9.234;2022-12-07T10:43:57;97522.06;;;10.35;65.82
21980;BME280;11154;48.558;9.234;2022-12-07T10:46:22;97519.56;;;10.34;64.56
21980;BME280;11154;48.558;9.234;2022-12-07T10:48:34;97517.72;;;10.26;61.79
21980;BME280;11154;48.558;9.234;2022-12-07T10:50:52;97519.34;;;10.19;62.38
21980;BME280;11154;48.558;9.234;2022-12-07T10:53:15;97523.81;;;10.19;63.03
21980;BME280;11154;48.558;9.234;2022-12-07T10:55:26;97520.50;;;10.17;62.46
21980;BME280;11154;48.558;9.234;2022-12-07T10:57:39;97515.03;;;10.18;62.11
21980;BME280;11154;48.558;9.234;2022-12-07T10:59:59;97507.22;;;10.25;62.17
21980;BME280;11154;48.558;9.234;2022-12-07T11:02:16;97505.09;;;10.28;62.42
21980;BME280;11154;48.558;9.234;2022-12-07T11:04:26;97504.78;;;10.31;61.95
21980;BME280;11154;48.558;9.234;2022-12-07T11:06:34;97498.63;;;10.31;61.78